aviador You're here:

KCQX Decoded Metar

CHATHAM in MA, USA
Report Time2018-01-17 08:58:00
UTC Time2018-01-17 09:19:44
Flight Rules ifr IFR
Wind040° at 04 kt
W.Decomp.*RWY 06: 4.0 kt HW 0.3 kt LCW
W.Rank040° ranks 5
Current wind is below 040° avg. (8.3)
Visibility3219 m
Phenomena:Light Snow
Mist
Clouds:Few 003 Hf
Overcast 017 Hf
Ceiling1,700 ft
Temp01°C (ISA -14)
Dew Point01°C (100% RH)
AAT-2.3°C
QNH1028 hPa
Density Alt-2,051 ft
Elevation62 ft
Report Wrong Elevation
Raw Report
KCQX 170858Z AUTO 04004KT 2SM -SN BR FEW003 OVC017 01/01 A3035 RMK
AO2 P0000 T00060006 TSNO=

Extra information for KCQX:More info

Metar Taf Metar & Taf Last 4 Metars F.Rules Stats Wind Profile Meteogram Temp Stats Airport Information Weather charts Add Link Nearby VenuesMetar ALERT Operation Metar Decoded Social comments

AIRNAV info for KCQX